Levis, Canada
Current Conditions -  °F | °C
As of 5:00 AM on Saturday 29 Nov 2014 (Local Time) from CYQB Reporting Station
Few Clouds Few Clouds  
Wind Chill: 10°   Ceiling: Unl
Heat Index: 10°   Visibility: 15mi
Dew Point:   Wind: 3mph
Humidity: 79%   Direction: 10°N
Pressure: 30.21"   Gusts: NA
Location:  46.8°N, 71.18°W
Report Text: CYQB 291000Z 01003KT 15SM FEW055 M12/M15 A3021 RMK SC1 SLP235
Loading
Personal Weather Stations






























Interactive Weather Map New forecast layout! Learn more

10-Day Weather Forecast

Advertisements
Track Severe Weather on mobile